Time;durP1;ratioP1;P1;durP2;ratioP2;P2;SDS_P1;SDS_P2;PMS_P1;PMS_P2;Temp;Humidity;BMP_temperature;BMP_pressure;BME280_temperature;BME280_humidity;BME280_pressure;Samples;Min_cycle;Max_cycle;Signal;HPM_P1;HPM_P2
2023/02/22 00:02:58;;;;;;;;;;;7.40;99.90;;;;;;8390073;28;20234;-71
2023/02/22 00:07:00;;;;;;;;;;;7.40;99.90;;;;;;8385198;28;19932;-72
2023/02/22 00:11:03;;;;;;;;;;;7.40;99.90;;;;;;8375887;28;19925;-72
2023/02/22 00:20:14;;;;;;;;;;;7.40;99.90;;;;;;8388070;28;19967;-72
2023/02/22 00:24:22;;;;;;;;;;;7.40;99.90;;;;;;8390930;28;19931;-72
2023/02/22 00:28:24;;;;;;;;;;;7.40;99.90;;;;;;8389422;28;19928;-71
2023/02/22 00:32:26;;;;;;;;;;;7.40;99.90;;;;;;8385305;28;19932;-72
2023/02/22 00:36:27;;;;;;;;;;;7.40;99.90;;;;;;8387153;28;19933;-72
2023/02/22 00:40:30;;;;;;;;;;;7.40;99.90;;;;;;8388141;28;20285;-72
2023/02/22 00:44:32;;;;;;;;;;;7.40;99.90;;;;;;8387111;28;20380;-71
2023/02/22 00:48:33;;;;;;;;;;;7.40;99.90;;;;;;8384958;28;19936;-72
2023/02/22 00:52:35;;;;;;;;;;;7.40;99.90;;;;;;8402250;28;19947;-71
2023/02/22 00:56:37;;;;;;;;;;;7.40;99.90;;;;;;8384949;28;20379;-72
2023/02/22 01:00:40;;;;;;;;;;;7.40;99.90;;;;;;8397444;28;20383;-71
2023/02/22 01:04:42;;;;;;;;;;;7.40;99.90;;;;;;8383806;28;19969;-71
2023/02/22 01:08:44;;;;;;;;;;;7.40;99.90;;;;;;8387851;28;19924;-71
2023/02/22 01:12:47;;;;;;;;;;;7.30;99.90;;;;;;8369891;28;19964;-71
2023/02/22 01:16:49;;;;;;;;;;;7.30;99.90;;;;;;8368114;28;20023;-71
2023/02/22 01:20:51;;;;;;;;;;;7.30;99.90;;;;;;8369490;28;19928;-71
2023/02/22 01:24:54;;;;;;;;;;;7.30;99.90;;;;;;8388585;28;19925;-72
2023/02/22 01:28:55;;;;;;;;;;;7.30;99.90;;;;;;8390619;28;20272;-72
2023/02/22 01:32:57;;;;;;;;;;;7.30;99.90;;;;;;8390121;28;19932;-71
2023/02/22 01:37:00;;;;;;;;;;;7.20;99.90;;;;;;8387085;28;19928;-71
2023/02/22 01:41:03;;;;;;;;;;;7.20;99.90;;;;;;8363248;28;20292;-71
2023/02/22 01:45:23;;;;;;;;;;;7.10;99.90;;;;;;8393177;28;20268;-71
2023/02/22 01:49:28;;;;;;;;;;;7.10;99.90;;;;;;8387711;28;20043;-72
2023/02/22 01:53:32;;;;;;;;;;;7.00;99.90;;;;;;8384408;28;19986;-72
2023/02/22 01:57:36;;;;;;;;;;;7.00;99.90;;;;;;8384810;28;19931;-72
2023/02/22 02:01:41;;;;;;;;;;;7.00;99.90;;;;;;8381340;28;19925;-71
2023/02/22 02:05:43;;;;;;;;;;;7.00;99.90;;;;;;8393124;28;19939;-72
2023/02/22 02:09:58;;;;;;;;;;;6.90;99.90;;;;;;8389988;28;20423;-71
2023/02/22 02:14:00;;;;;;;;;;;6.90;99.90;;;;;;8388083;28;20363;-71
2023/02/22 02:18:04;;;;;;;;;;;6.80;99.90;;;;;;8384172;28;20052;-71
2023/02/22 02:22:19;;;;;;;;;;;6.80;99.90;;;;;;8383240;28;19938;-72
2023/02/22 02:26:33;;;;;;;;;;;6.80;99.90;;;;;;8384220;28;19924;-72
2023/02/22 02:30:50;;;;;;;;;;;6.80;99.90;;;;;;8386216;28;19971;-71
2023/02/22 02:40:16;;;;;;;;;;;6.80;99.90;;;;;;8382971;28;20026;-72
2023/02/22 02:44:18;;;;;;;;;;;6.80;99.90;;;;;;8386062;28;19955;-72
2023/02/22 02:48:22;;;;;;;;;;;6.80;99.90;;;;;;8393986;28;19938;-72
2023/02/22 02:52:25;;;;;;;;;;;6.70;99.90;;;;;;8394826;28;19931;-72
2023/02/22 03:06:57;;;;;;;;;;;6.60;99.90;;;;;;8390076;28;19919;-71
2023/02/22 03:11:05;;;;;;;;;;;6.60;99.90;;;;;;8353753;28;20494;-72
2023/02/22 03:15:13;;;;;;;;;;;6.50;99.90;;;;;;8394945;28;19931;-72
2023/02/22 03:19:15;;;;;;;;;;;6.50;99.90;;;;;;8392334;28;19925;-72
2023/02/22 03:23:24;;;;;;;;;;;6.50;99.90;;;;;;8377927;28;20311;-71
2023/02/22 03:27:45;;;;;;;;;;;6.50;99.90;;;;;;8403649;28;19959;-71
2023/02/22 03:31:54;;;;;;;;;;;6.50;99.90;;;;;;8391826;28;19977;-72
2023/02/22 03:35:58;;;;;;;;;;;6.50;99.90;;;;;;8380463;28;19925;-71
2023/02/22 03:40:05;;;;;;;;;;;6.40;99.90;;;;;;8384379;28;20364;-71
2023/02/22 03:44:14;;;;;;;;;;;6.40;99.90;;;;;;8365482;28;20400;-71
2023/02/22 03:48:20;;;;;;;;;;;6.40;99.90;;;;;;8400005;28;20011;-71
2023/02/22 03:52:24;;;;;;;;;;;6.40;99.90;;;;;;8393596;28;19963;-72
2023/02/22 03:56:34;;;;;;;;;;;6.40;99.90;;;;;;8388751;28;19928;-72
2023/02/22 04:00:36;;;;;;;;;;;6.40;99.90;;;;;;8386361;28;19970;-71
2023/02/22 04:04:38;;;;;;;;;;;6.30;99.90;;;;;;8389923;28;19947;-71
2023/02/22 04:08:40;;;;;;;;;;;6.30;99.90;;;;;;8384767;28;20623;-71
2023/02/22 04:12:41;;;;;;;;;;;6.30;99.90;;;;;;8393111;28;19925;-71
2023/02/22 04:16:43;;;;;;;;;;;6.30;99.90;;;;;;8383313;28;20372;-72
2023/02/22 04:20:45;;;;;;;;;;;6.30;99.90;;;;;;8391342;28;20368;-72
2023/02/22 04:24:47;;;;;;;;;;;6.30;99.90;;;;;;8396750;28;20010;-71
2023/02/22 04:28:49;;;;;;;;;;;6.30;99.90;;;;;;8388295;28;19935;-71
2023/02/22 04:32:51;;;;;;;;;;;6.20;99.90;;;;;;8386827;28;20026;-71
2023/02/22 04:36:52;;;;;;;;;;;6.20;99.90;;;;;;8381572;28;19931;-72
2023/02/22 04:40:54;;;;;;;;;;;6.10;99.90;;;;;;8384942;28;19924;-72
2023/02/22 04:44:56;;;;;;;;;;;6.10;99.90;;;;;;8367295;28;19928;-71
2023/02/22 04:48:57;;;;;;;;;;;6.10;99.90;;;;;;8381344;28;19947;-72
2023/02/22 04:52:59;;;;;;;;;;;6.10;99.90;;;;;;8389272;28;19951;-71
2023/02/22 04:57:00;;;;;;;;;;;6.10;99.90;;;;;;8367644;28;20399;-71
2023/02/22 05:01:02;;;;;;;;;;;6.10;99.90;;;;;;8388026;28;19934;-71
2023/02/22 05:05:04;;;;;;;;;;;6.10;99.90;;;;;;8383845;28;20422;-71
2023/02/22 05:09:06;;;;;;;;;;;6.10;99.90;;;;;;8391127;28;19978;-71
2023/02/22 05:13:08;;;;;;;;;;;6.10;99.90;;;;;;8364296;28;19972;-72
2023/02/22 05:17:09;;;;;;;;;;;6.10;99.90;;;;;;8389684;28;19968;-71
2023/02/22 05:21:12;;;;;;;;;;;6.10;99.90;;;;;;8390703;28;19931;-72
2023/02/22 05:25:14;;;;;;;;;;;6.00;99.90;;;;;;8391991;28;20388;-71
2023/02/22 05:29:15;;;;;;;;;;;6.10;99.90;;;;;;8391779;28;19928;-72
2023/02/22 05:33:17;;;;;;;;;;;6.10;99.90;;;;;;8386063;28;19971;-71
2023/02/22 05:37:19;;;;;;;;;;;6.10;99.90;;;;;;8394890;28;19960;-71
2023/02/22 05:41:20;;;;;;;;;;;6.10;99.90;;;;;;8381319;28;19931;-72
2023/02/22 05:45:23;;;;;;;;;;;6.00;99.90;;;;;;8386197;28;19928;-71
2023/02/22 05:49:25;;;;;;;;;;;6.00;99.90;;;;;;8386066;28;19975;-71
2023/02/22 05:53:26;;;;;;;;;;;6.00;99.90;;;;;;8371784;28;20019;-71
2023/02/22 05:57:28;;;;;;;;;;;5.90;99.90;;;;;;8394507;28;20294;-71
2023/02/22 06:01:30;;;;;;;;;;;6.00;99.90;;;;;;8386583;28;20380;-71
2023/02/22 06:05:31;;;;;;;;;;;6.00;99.90;;;;;;8394680;28;20272;-71
2023/02/22 06:09:33;;;;;;;;;;;6.00;99.90;;;;;;8374302;28;19969;-71
2023/02/22 06:13:35;;;;;;;;;;;6.00;99.90;;;;;;8393140;28;19956;-71
2023/02/22 06:17:38;;;;;;;;;;;5.90;99.90;;;;;;8380554;28;19933;-71
2023/02/22 06:21:47;;;;;;;;;;;5.80;99.90;;;;;;8388540;28;20376;-71
2023/02/22 06:25:48;;;;;;;;;;;5.80;99.90;;;;;;8385650;28;20391;-72
2023/02/22 06:29:50;;;;;;;;;;;5.70;99.90;;;;;;8382114;28;19931;-71
2023/02/22 06:33:51;;;;;;;;;;;5.70;99.90;;;;;;8383527;28;19968;-71
2023/02/22 06:37:53;;;;;;;;;;;5.70;99.90;;;;;;8367482;28;19924;-72
2023/02/22 06:41:56;;;;;;;;;;;5.80;99.90;;;;;;8376830;28;19967;-72
2023/02/22 06:45:58;;;;;;;;;;;5.80;99.90;;;;;;8387550;28;20023;-71
2023/02/22 06:49:59;;;;;;;;;;;5.80;99.90;;;;;;8389934;28;19986;-71
2023/02/22 06:54:02;;;;;;;;;;;5.80;99.90;;;;;;8390496;28;19963;-71
2023/02/22 06:58:03;;;;;;;;;;;5.80;99.90;;;;;;8378596;28;20390;-72
2023/02/22 07:02:05;;;;;;;;;;;5.80;99.90;;;;;;8381260;28;19935;-72
2023/02/22 07:06:07;;;;;;;;;;;5.80;99.90;;;;;;8376318;28;19942;-72
2023/02/22 07:10:15;;;;;;;;;;;5.90;99.90;;;;;;8388011;28;19925;-72
2023/02/22 07:14:17;;;;;;;;;;;5.90;99.90;;;;;;8394698;28;20403;-72
2023/02/22 07:18:19;;;;;;;;;;;5.90;99.90;;;;;;8394233;28;19947;-71
2023/02/22 07:22:20;;;;;;;;;;;5.90;99.90;;;;;;8380204;28;20015;-71
2023/02/22 07:26:22;;;;;;;;;;;6.00;99.90;;;;;;8397664;28;19939;-71
2023/02/22 07:30:26;;;;;;;;;;;6.00;99.90;;;;;;8379227;28;19960;-72
2023/02/22 07:34:29;;;;;;;;;;;6.00;99.90;;;;;;8395305;28;19929;-71
2023/02/22 07:38:31;;;;;;;;;;;6.00;99.90;;;;;;8393304;28;19983;-71
2023/02/22 07:42:32;;;;;;;;;;;6.00;99.90;;;;;;8377166;28;19942;-71
2023/02/22 07:46:34;;;;;;;;;;;6.00;99.90;;;;;;8393513;28;19924;-71
2023/02/22 07:50:36;;;;;;;;;;;6.10;99.90;;;;;;8392618;28;19930;-71
2023/02/22 07:54:37;;;;;;;;;;;6.10;99.90;;;;;;8394167;28;19928;-71
2023/02/22 07:58:39;;;;;;;;;;;6.10;99.90;;;;;;8378857;28;19925;-71
2023/02/22 08:02:41;;;;;;;;;;;6.10;99.90;;;;;;8389744;28;19931;-72
2023/02/22 08:06:45;;;;;;;;;;;6.20;99.90;;;;;;8395233;28;19940;-72
2023/02/22 08:10:47;;;;;;;;;;;6.20;99.90;;;;;;8372839;28;19982;-72
2023/02/22 08:14:49;;;;;;;;;;;6.20;99.90;;;;;;8393975;28;19974;-71
2023/02/22 08:18:51;;;;;;;;;;;6.20;99.90;;;;;;8387202;28;19925;-71
2023/02/22 08:22:52;;;;;;;;;;;6.30;99.90;;;;;;8374171;28;20003;-71
2023/02/22 08:26:54;;;;;;;;;;;6.30;99.90;;;;;;8396970;28;19974;-71
2023/02/22 08:30:56;;;;;;;;;;;6.40;99.90;;;;;;8395250;28;20269;-72
2023/02/22 08:34:57;;;;;;;;;;;6.40;99.90;;;;;;8391993;28;20023;-72
2023/02/22 08:38:59;;;;;;;;;;;6.40;99.90;;;;;;8391301;28;19954;-72
2023/02/22 08:43:01;;;;;;;;;;;6.50;99.90;;;;;;8390781;28;19924;-72
2023/02/22 08:47:03;;;;;;;;;;;6.50;99.90;;;;;;8373645;28;20003;-72
2023/02/22 08:51:04;;;;;;;;;;;6.60;99.90;;;;;;8389116;28;19939;-72
2023/02/22 08:55:06;;;;;;;;;;;6.60;99.90;;;;;;8389943;28;20295;-72
2023/02/22 08:59:07;;;;;;;;;;;6.70;99.90;;;;;;8393662;28;20299;-72
2023/02/22 09:03:12;;;;;;;;;;;6.80;99.90;;;;;;8390102;28;19934;-72
2023/02/22 09:22:23;;;;;;;;;;;7.00;99.90;;;;;;8391858;28;19928;-72
2023/02/22 09:26:26;;;;;;;;;;;7.10;99.90;;;;;;8392316;28;20011;-72
2023/02/22 09:30:32;;;;;;;;;;;7.10;99.90;;;;;;8362907;28;19939;-71
2023/02/22 09:34:34;;;;;;;;;;;7.20;99.90;;;;;;8388016;28;19932;-72
2023/02/22 09:38:35;;;;;;;;;;;7.20;99.90;;;;;;8388358;28;19951;-71
2023/02/22 09:42:41;;;;;;;;;;;7.30;99.90;;;;;;8384482;28;19925;-72
2023/02/22 09:46:44;;;;;;;;;;;7.40;99.90;;;;;;8390861;28;19987;-72
2023/02/22 09:50:47;;;;;;;;;;;7.60;99.90;;;;;;8389770;28;19951;-71
2023/02/22 09:54:51;;;;;;;;;;;7.70;99.90;;;;;;8391145;28;19932;-71
2023/02/22 09:59:00;;;;;;;;;;;7.80;99.90;;;;;;8390184;28;19925;-71
2023/02/22 10:03:21;;;;;;;;;;;8.00;99.90;;;;;;8389092;28;20047;-71
2023/02/22 10:07:35;;;;;;;;;;;8.10;99.90;;;;;;8387402;28;19929;-71
2023/02/22 10:12:07;;;;;;;;;;;8.30;99.90;;;;;;8384225;28;19929;-72
2023/02/22 10:16:35;;;;;;;;;;;8.60;99.90;;;;;;8373817;28;20343;-72
2023/02/22 10:20:40;;;;;;;;;;;8.90;99.90;;;;;;8350695;28;20011;-71
2023/02/22 10:24:45;;;;;;;;;;;9.10;99.90;;;;;;8390991;28;19965;-71
2023/02/22 10:28:56;;;;;;;;;;;9.10;99.90;;;;;;8373626;28;19928;-72
2023/02/22 10:33:00;;;;;;;;;;;9.00;99.90;;;;;;8394571;28;19956;-72
2023/02/22 10:37:16;;;;;;;;;;;8.90;99.90;;;;;;8396532;28;19931;-71
2023/02/22 10:41:19;;;;;;;;;;;8.90;99.90;;;;;;8376238;28;19958;-71
2023/02/22 10:45:25;;;;;;;;;;;8.90;99.90;;;;;;8395524;28;19933;-72
2023/02/22 10:49:31;;;;;;;;;;;8.90;99.90;;;;;;8377255;28;19925;-72
2023/02/22 10:53:36;;;;;;;;;;;9.00;99.90;;;;;;8389895;28;20376;-72
2023/02/22 10:57:41;;;;;;;;;;;9.00;99.90;;;;;;8390024;28;19929;-72
2023/02/22 11:01:42;;;;;;;;;;;9.00;99.90;;;;;;8387417;28;20027;-72
2023/02/22 11:05:44;;;;;;;;;;;9.00;99.90;;;;;;8396525;28;20299;-71
2023/02/22 11:09:50;;;;;;;;;;;8.90;99.90;;;;;;8390485;28;19924;-71
2023/02/22 11:13:54;;;;;;;;;;;8.90;99.90;;;;;;8396901;28;19939;-72
2023/02/22 11:17:56;;;;;;;;;;;9.00;99.90;;;;;;8383086;28;19924;-71
2023/02/22 11:22:08;;;;;;;;;;;9.00;99.90;;;;;;8396703;28;20288;-71
2023/02/22 11:26:13;;;;;;;;;;;9.10;99.90;;;;;;8396511;28;20307;-72
2023/02/22 11:30:19;;;;;;;;;;;9.20;99.90;;;;;;8377109;28;20378;-71
2023/02/22 11:34:25;;;;;;;;;;;9.30;99.90;;;;;;8399690;28;19924;-71
2023/02/22 11:38:28;;;;;;;;;;;9.40;99.90;;;;;;8395230;28;19928;-71
2023/02/22 11:42:30;;;;;;;;;;;9.50;99.90;;;;;;8373653;28;19932;-72
2023/02/22 11:46:33;;;;;;;;;;;9.50;99.90;;;;;;8369567;28;19925;-72
2023/02/22 11:50:45;;;;;;;;;;;9.50;99.90;;;;;;8368816;28;20291;-72
2023/02/22 11:54:59;;;;;;;;;;;9.60;99.90;;;;;;8369747;28;19929;-72
2023/02/22 11:59:20;;;;;;;;;;;9.50;99.90;;;;;;8363835;28;19937;-72
2023/02/22 12:03:42;;;;;;;;;;;9.60;99.90;;;;;;8365886;28;20347;-72
2023/02/22 12:07:43;;;;;;;;;;;9.50;99.90;;;;;;8370006;28;20845;-72
2023/02/22 12:11:57;;;;;;;;;;;9.50;99.90;;;;;;8359319;28;19925;-72
2023/02/22 12:16:02;;;;;;;;;;;9.50;99.90;;;;;;8379812;28;19924;-71
2023/02/22 12:20:09;;;;;;;;;;;9.50;99.90;;;;;;8371523;28;20032;-72
2023/02/22 12:24:19;;;;;;;;;;;9.60;99.90;;;;;;8362336;28;20319;-72
2023/02/22 12:28:24;;;;;;;;;;;9.70;99.90;;;;;;8362224;28;24299;-72
2023/02/22 12:32:52;;;;;;;;;;;10.00;99.90;;;;;;8359370;28;19976;-72
2023/02/22 12:36:58;;;;;;;;;;;10.20;99.90;;;;;;8353964;28;19933;-72
2023/02/22 12:41:08;;;;;;;;;;;10.30;99.90;;;;;;8358189;28;21442;-72
2023/02/22 12:45:15;;;;;;;;;;;10.40;99.90;;;;;;8357853;28;20367;-72
2023/02/22 12:49:36;;;;;;;;;;;10.40;99.90;;;;;;8360176;28;20348;-72
2023/02/22 12:53:39;;;;;;;;;;;10.50;99.90;;;;;;8364136;28;19931;-72
2023/02/22 12:57:47;;;;;;;;;;;10.50;99.90;;;;;;8345107;28;19975;-72
2023/02/22 13:01:52;;;;;;;;;;;10.50;99.90;;;;;;8370799;28;19932;-72
2023/02/22 13:05:59;;;;;;;;;;;10.50;99.90;;;;;;8364036;28;20380;-72
2023/02/22 13:10:10;;;;;;;;;;;10.60;99.90;;;;;;8365840;28;19924;-72
2023/02/22 13:14:11;;;;;;;;;;;10.60;99.90;;;;;;8369033;28;19931;-72
2023/02/22 13:18:13;;;;;;;;;;;10.60;99.90;;;;;;8343909;28;19932;-72
2023/02/22 13:22:21;;;;;;;;;;;10.50;99.90;;;;;;8364082;28;20038;-72
2023/02/22 13:26:31;;;;;;;;;;;10.50;99.90;;;;;;8368467;28;19932;-72
2023/02/22 13:30:37;;;;;;;;;;;10.50;99.90;;;;;;8364177;28;19928;-72
2023/02/22 13:34:42;;;;;;;;;;;10.60;99.90;;;;;;8365522;28;19932;-72
2023/02/22 13:38:53;;;;;;;;;;;10.60;99.90;;;;;;8362674;28;20023;-71
2023/02/22 13:43:01;;;;;;;;;;;10.60;99.90;;;;;;8367428;28;19929;-71
2023/02/22 13:47:15;;;;;;;;;;;10.50;99.90;;;;;;8365005;28;19958;-71
2023/02/22 13:51:29;;;;;;;;;;;10.50;99.90;;;;;;8350021;28;19987;-72
2023/02/22 13:55:33;;;;;;;;;;;10.50;99.90;;;;;;8364813;28;19976;-72
2023/02/22 13:59:35;;;;;;;;;;;10.50;99.90;;;;;;8363935;28;19979;-72
2023/02/22 14:03:41;;;;;;;;;;;10.50;99.90;;;;;;8365949;28;19971;-72
2023/02/22 14:07:47;;;;;;;;;;;10.50;99.90;;;;;;8365791;28;19933;-72
2023/02/22 14:11:55;;;;;;;;;;;10.50;99.90;;;;;;8341778;28;19939;-72
2023/02/22 14:16:01;;;;;;;;;;;10.50;99.90;;;;;;8364019;28;20395;-72
2023/02/22 14:20:13;;;;;;;;;;;10.50;99.90;;;;;;8364252;28;19939;-72
2023/02/22 14:24:15;;;;;;;;;;;10.50;99.90;;;;;;8349268;28;19924;-72
2023/02/22 14:28:35;;;;;;;;;;;10.50;99.90;;;;;;8365472;28;19929;-72
2023/02/22 14:32:37;;;;;;;;;;;10.60;99.90;;;;;;8375498;28;20078;-72
2023/02/22 14:36:59;;;;;;;;;;;10.60;99.90;;;;;;8364192;28;20333;-72
2023/02/22 14:41:02;;;;;;;;;;;10.70;99.90;;;;;;8358960;28;19971;-72
2023/02/22 14:45:08;;;;;;;;;;;10.70;99.90;;;;;;8362240;28;20193;-72
2023/02/22 14:49:17;;;;;;;;;;;10.70;99.90;;;;;;8366788;28;20337;-72
2023/02/22 14:53:19;;;;;;;;;;;10.70;99.90;;;;;;8370644;28;19961;-72
2023/02/22 14:57:24;;;;;;;;;;;10.60;99.90;;;;;;8353347;28;20049;-71
2023/02/22 15:01:29;;;;;;;;;;;10.60;99.90;;;;;;8370664;28;20004;-72
2023/02/22 15:05:48;;;;;;;;;;;10.50;99.90;;;;;;8368213;28;19936;-72
2023/02/22 15:09:50;;;;;;;;;;;10.50;99.90;;;;;;8370644;28;19929;-72
2023/02/22 15:13:52;;;;;;;;;;;10.50;99.90;;;;;;8370693;28;19929;-72
2023/02/22 15:17:55;;;;;;;;;;;10.50;99.90;;;;;;8371830;28;20384;-72
2023/02/22 15:21:58;;;;;;;;;;;10.50;99.90;;;;;;8368111;28;19938;-72
2023/02/22 15:26:00;;;;;;;;;;;10.50;99.90;;;;;;8366673;28;19929;-72
2023/02/22 15:30:16;;;;;;;;;;;10.50;99.90;;;;;;8382810;28;20011;-72
2023/02/22 15:34:23;;;;;;;;;;;10.50;99.90;;;;;;8366319;28;19932;-71
2023/02/22 15:38:28;;;;;;;;;;;10.40;99.90;;;;;;8365244;28;19932;-72
2023/02/22 15:42:30;;;;;;;;;;;10.40;99.90;;;;;;8366537;28;20019;-71
2023/02/22 15:46:32;;;;;;;;;;;10.40;99.90;;;;;;8354387;28;19929;-73
2023/02/22 15:50:34;;;;;;;;;;;10.40;99.90;;;;;;8371461;28;19932;-72
2023/02/22 15:54:41;;;;;;;;;;;10.40;99.90;;;;;;8368210;28;20066;-72
2023/02/22 15:58:44;;;;;;;;;;;10.30;99.90;;;;;;8360498;28;20389;-72
2023/02/22 16:02:46;;;;;;;;;;;10.20;99.90;;;;;;8345820;28;19958;-72
2023/02/22 16:06:49;;;;;;;;;;;10.20;99.90;;;;;;8368309;28;19978;-72
2023/02/22 16:11:03;;;;;;;;;;;10.20;99.90;;;;;;8366474;28;21871;-72
2023/02/22 16:15:13;;;;;;;;;;;10.20;99.90;;;;;;8373225;28;19971;-72
2023/02/22 16:19:35;;;;;;;;;;;10.10;99.90;;;;;;8372908;28;19967;-71
2023/02/22 16:23:44;;;;;;;;;;;10.10;99.90;;;;;;8372780;28;20333;-72
2023/02/22 16:27:47;;;;;;;;;;;10.10;99.90;;;;;;8362173;28;19929;-72
2023/02/22 16:31:48;;;;;;;;;;;10.00;99.90;;;;;;8358925;28;19929;-72
2023/02/22 16:35:50;;;;;;;;;;;10.00;99.90;;;;;;8369658;28;20031;-72
2023/02/22 16:39:52;;;;;;;;;;;9.90;99.90;;;;;;8377874;28;20388;-72
2023/02/22 16:43:54;;;;;;;;;;;9.90;99.90;;;;;;8366056;28;20058;-72
2023/02/22 16:47:57;;;;;;;;;;;9.80;99.90;;;;;;8363334;28;19977;-72
2023/02/22 16:52:00;;;;;;;;;;;9.80;99.90;;;;;;8349100;28;19924;-72
2023/02/22 16:56:04;;;;;;;;;;;9.80;99.90;;;;;;8379129;28;19924;-72
2023/02/22 17:00:11;;;;;;;;;;;9.80;99.90;;;;;;8363738;28;19970;-72
2023/02/22 17:04:14;;;;;;;;;;;9.80;99.90;;;;;;8367955;28;19959;-72
2023/02/22 17:08:16;;;;;;;;;;;9.80;99.90;;;;;;8366061;28;20367;-72
2023/02/22 17:12:18;;;;;;;;;;;9.70;99.90;;;;;;8363627;28;19975;-72
2023/02/22 17:16:19;;;;;;;;;;;9.70;99.90;;;;;;8362152;28;19933;-72
2023/02/22 17:20:31;;;;;;;;;;;9.70;99.90;;;;;;8359832;28;19928;-71
2023/02/22 17:24:33;;;;;;;;;;;9.70;99.90;;;;;;8352212;28;19970;-71
2023/02/22 17:28:34;;;;;;;;;;;9.70;99.90;;;;;;8358193;28;19933;-71
2023/02/22 17:32:36;;;;;;;;;;;9.70;99.90;;;;;;8360267;28;20375;-71
2023/02/22 17:36:38;;;;;;;;;;;9.70;99.90;;;;;;8362451;28;20376;-71
2023/02/22 17:40:39;;;;;;;;;;;9.60;99.90;;;;;;8360793;28;19947;-71
2023/02/22 17:44:41;;;;;;;;;;;9.60;99.90;;;;;;8346605;28;19929;-72
2023/02/22 17:48:43;;;;;;;;;;;9.60;99.90;;;;;;8362015;28;19931;-72
2023/02/22 17:52:45;;;;;;;;;;;9.60;99.90;;;;;;8364840;28;20172;-72
2023/02/22 17:56:46;;;;;;;;;;;9.60;99.90;;;;;;8367870;28;19936;-72
2023/02/22 18:00:48;;;;;;;;;;;9.60;99.90;;;;;;8361098;28;20023;-72
2023/02/22 18:04:50;;;;;;;;;;;9.60;99.90;;;;;;8375739;28;19982;-72
2023/02/22 18:08:52;;;;;;;;;;;9.60;99.90;;;;;;8368618;28;20035;-72
2023/02/22 18:13:00;;;;;;;;;;;9.60;99.90;;;;;;8368465;28;20019;-72
2023/02/22 18:17:02;;;;;;;;;;;9.60;99.90;;;;;;8363528;28;19940;-72
2023/02/22 18:21:05;;;;;;;;;;;9.60;99.90;;;;;;8361762;28;20023;-72
2023/02/22 18:25:07;;;;;;;;;;;9.60;99.90;;;;;;8350233;28;20088;-72
2023/02/22 18:29:11;;;;;;;;;;;9.60;99.90;;;;;;8363031;28;20140;-72
2023/02/22 18:33:13;;;;;;;;;;;9.60;99.90;;;;;;8365553;28;19935;-72
2023/02/22 18:37:19;;;;;;;;;;;9.60;99.90;;;;;;8349636;28;19936;-72
2023/02/22 18:41:23;;;;;;;;;;;9.60;99.90;;;;;;8370987;28;19985;-72
2023/02/22 18:45:26;;;;;;;;;;;9.60;99.90;;;;;;8362134;28;19929;-72
2023/02/22 18:49:28;;;;;;;;;;;9.60;99.90;;;;;;8362625;28;20381;-72
2023/02/22 18:53:30;;;;;;;;;;;9.60;99.90;;;;;;8372403;28;19983;-72
2023/02/22 18:57:34;;;;;;;;;;;9.60;99.90;;;;;;8361154;28;19936;-72
2023/02/22 19:01:37;;;;;;;;;;;9.60;99.90;;;;;;8362300;28;20422;-72
2023/02/22 19:05:39;;;;;;;;;;;9.60;99.90;;;;;;8377834;28;19924;-72
2023/02/22 19:09:41;;;;;;;;;;;9.60;99.90;;;;;;8361539;28;19928;-72
2023/02/22 19:13:45;;;;;;;;;;;9.60;99.90;;;;;;8364546;28;19932;-72
2023/02/22 19:17:46;;;;;;;;;;;9.60;99.90;;;;;;8362519;28;19941;-72
2023/02/22 19:21:49;;;;;;;;;;;9.50;99.90;;;;;;8362776;28;19943;-72
2023/02/22 19:25:51;;;;;;;;;;;9.50;99.90;;;;;;8377794;28;19964;-72
2023/02/22 19:29:52;;;;;;;;;;;9.50;99.90;;;;;;8340721;28;20431;-72
2023/02/22 19:33:54;;;;;;;;;;;9.50;99.90;;;;;;8350865;28;21931;-72
2023/02/22 19:37:57;;;;;;;;;;;9.40;99.90;;;;;;8371354;28;19935;-72
2023/02/22 19:41:59;;;;;;;;;;;9.30;99.90;;;;;;8368964;28;19924;-72
2023/02/22 19:46:04;;;;;;;;;;;9.30;99.90;;;;;;8366774;28;19971;-72
2023/02/22 19:50:06;;;;;;;;;;;9.30;99.90;;;;;;8347568;28;19979;-72
2023/02/22 19:54:11;;;;;;;;;;;9.20;99.90;;;;;;8373558;28;19928;-72
2023/02/22 19:58:14;;;;;;;;;;;9.20;99.90;;;;;;8365511;28;19984;-72
2023/02/22 20:02:17;;;;;;;;;;;9.20;99.90;;;;;;8345976;28;22243;-72
2023/02/22 20:06:19;;;;;;;;;;;9.20;99.90;;;;;;8364237;28;20269;-72
2023/02/22 20:10:22;;;;;;;;;;;9.10;99.90;;;;;;8362698;28;19931;-72
2023/02/22 20:14:27;;;;;;;;;;;9.10;99.90;;;;;;8366050;28;19944;-72
2023/02/22 20:18:28;;;;;;;;;;;9.10;99.90;;;;;;8362529;28;20661;-72
2023/02/22 20:22:30;;;;;;;;;;;9.10;99.90;;;;;;8364244;28;19964;-72
2023/02/22 20:26:33;;;;;;;;;;;9.10;99.90;;;;;;8379531;28;19975;-71
2023/02/22 20:30:36;;;;;;;;;;;9.10;99.90;;;;;;8375897;28;19936;-72
2023/02/22 20:34:37;;;;;;;;;;;9.00;99.90;;;;;;8369154;28;19933;-72
2023/02/22 20:38:39;;;;;;;;;;;9.00;99.90;;;;;;8365084;28;20082;-72
2023/02/22 20:42:43;;;;;;;;;;;9.10;99.90;;;;;;8367199;28;19924;-72
2023/02/22 20:46:45;;;;;;;;;;;9.00;99.90;;;;;;8369992;28;19939;-72
2023/02/22 20:50:47;;;;;;;;;;;9.00;99.90;;;;;;8364951;28;19951;-72
2023/02/22 20:54:48;;;;;;;;;;;9.00;99.90;;;;;;8365397;28;19929;-72
2023/02/22 20:58:50;;;;;;;;;;;9.00;99.90;;;;;;8347441;28;19939;-71
2023/02/22 21:02:51;;;;;;;;;;;8.90;99.90;;;;;;8364781;28;20002;-71
2023/02/22 21:06:53;;;;;;;;;;;8.90;99.90;;;;;;8366644;28;19964;-72
2023/02/22 21:10:55;;;;;;;;;;;8.90;99.90;;;;;;8355892;28;20265;-72
2023/02/22 21:14:56;;;;;;;;;;;8.90;99.90;;;;;;8360272;28;20372;-72
2023/02/22 21:18:59;;;;;;;;;;;8.90;99.90;;;;;;8362767;28;19935;-71
2023/02/22 21:23:02;;;;;;;;;;;8.90;99.90;;;;;;8360156;28;19931;-71
2023/02/22 21:27:05;;;;;;;;;;;8.90;99.90;;;;;;8368580;28;19929;-71
2023/02/22 21:31:07;;;;;;;;;;;8.80;99.90;;;;;;8363559;28;19986;-71
2023/02/22 21:35:09;;;;;;;;;;;8.80;99.90;;;;;;8364160;28;20115;-72
2023/02/22 21:39:16;;;;;;;;;;;8.80;99.90;;;;;;8370516;28;20023;-72
2023/02/22 21:43:18;;;;;;;;;;;8.80;99.90;;;;;;8341246;28;19936;-72
2023/02/22 21:47:21;;;;;;;;;;;8.80;99.90;;;;;;8365603;28;19931;-72
2023/02/22 21:51:24;;;;;;;;;;;8.80;99.90;;;;;;8355174;28;20452;-72
2023/02/22 21:55:26;;;;;;;;;;;8.80;99.90;;;;;;8362040;28;20412;-71
2023/02/22 21:59:27;;;;;;;;;;;8.70;99.90;;;;;;8361365;28;19968;-71
2023/02/22 22:03:29;;;;;;;;;;;8.80;99.90;;;;;;8364982;28;20322;-71
2023/02/22 22:07:31;;;;;;;;;;;8.80;99.90;;;;;;8388263;28;19931;-71
2023/02/22 22:11:32;;;;;;;;;;;8.80;99.90;;;;;;8380760;28;20390;-71
2023/02/22 22:15:36;;;;;;;;;;;8.80;99.90;;;;;;8369992;28;19934;-71
2023/02/22 22:19:38;;;;;;;;;;;8.80;99.90;;;;;;8384787;28;19932;-71
2023/02/22 22:23:40;;;;;;;;;;;8.70;99.90;;;;;;8369538;28;19931;-71
2023/02/22 22:27:42;;;;;;;;;;;8.70;99.90;;;;;;8389467;28;20006;-71
2023/02/22 22:31:44;;;;;;;;;;;8.70;99.90;;;;;;8389046;28;19928;-71
2023/02/22 22:35:46;;;;;;;;;;;8.70;99.90;;;;;;8375854;28;20003;-71
2023/02/22 22:39:47;;;;;;;;;;;8.70;99.90;;;;;;8382511;28;19924;-72
2023/02/22 22:43:51;;;;;;;;;;;8.70;99.90;;;;;;8387393;28;19935;-71
2023/02/22 22:47:52;;;;;;;;;;;8.70;99.90;;;;;;8379811;28;20007;-72
2023/02/22 22:51:54;;;;;;;;;;;8.70;99.90;;;;;;8384075;28;19924;-72
2023/02/22 22:56:03;;;;;;;;;;;8.70;99.90;;;;;;8381281;28;20011;-72
2023/02/22 23:00:23;;;;;;;;;;;8.70;99.90;;;;;;8374870;28;19928;-71
2023/02/22 23:04:25;;;;;;;;;;;8.70;99.90;;;;;;8387307;28;19931;-71
2023/02/22 23:08:28;;;;;;;;;;;8.70;99.90;;;;;;8396494;28;20288;-71
2023/02/22 23:12:30;;;;;;;;;;;8.70;99.90;;;;;;8385967;28;20384;-72
2023/02/22 23:16:32;;;;;;;;;;;8.70;99.90;;;;;;8369141;28;19924;-71
2023/02/22 23:20:37;;;;;;;;;;;8.80;99.90;;;;;;8391809;28;20011;-71
2023/02/22 23:24:39;;;;;;;;;;;8.80;99.90;;;;;;8395027;28;19931;-71
2023/02/22 23:28:41;;;;;;;;;;;8.70;99.90;;;;;;8384752;28;19928;-71
2023/02/22 23:32:45;;;;;;;;;;;8.70;99.90;;;;;;8385196;28;19969;-72
2023/02/22 23:36:47;;;;;;;;;;;8.70;99.90;;;;;;8384129;28;19928;-72
2023/02/22 23:40:52;;;;;;;;;;;8.70;99.90;;;;;;8392951;28;20402;-72
2023/02/22 23:44:54;;;;;;;;;;;8.70;99.90;;;;;;8391708;28;19963;-72
2023/02/22 23:49:00;;;;;;;;;;;8.70;99.90;;;;;;8392427;28;20398;-73
2023/02/22 23:53:02;;;;;;;;;;;8.70;99.90;;;;;;8389867;28;19924;-72
2023/02/22 23:57:04;;;;;;;;;;;8.70;99.90;;;;;;8377370;28;19928;-71
